sensor_id;sensor_type;location;lat;lon;timestamp;P1;durP1;ratioP1;P2;durP2;ratioP2
75007;SDS011;63554;48.940;12.050;2022-12-29T00:01:50;2.58;;;2.38;;
75007;SDS011;63554;48.940;12.050;2022-12-29T00:05:54;2.65;;;2.08;;
75007;SDS011;63554;48.940;12.050;2022-12-29T00:09:58;2.40;;;2.25;;
75007;SDS011;63554;48.940;12.050;2022-12-29T00:14:01;3.40;;;2.53;;
75007;SDS011;63554;48.940;12.050;2022-12-29T00:18:26;2.40;;;1.92;;
75007;SDS011;63554;48.940;12.050;2022-12-29T00:22:29;3.30;;;2.65;;
75007;SDS011;63554;48.940;12.050;2022-12-29T00:26:52;1.45;;;1.25;;
75007;SDS011;63554;48.940;12.050;2022-12-29T00:31:18;1.35;;;1.13;;
75007;SDS011;63554;48.940;12.050;2022-12-29T00:35:39;2.40;;;2.22;;
75007;SDS011;63554;48.940;12.050;2022-12-29T00:39:46;1.60;;;1.50;;
75007;SDS011;63554;48.940;12.050;2022-12-29T00:44:08;2.85;;;2.65;;
75007;SDS011;63554;48.940;12.050;2022-12-29T00:48:12;2.72;;;2.58;;
75007;SDS011;63554;48.940;12.050;2022-12-29T00:52:14;1.65;;;1.45;;
75007;SDS011;63554;48.940;12.050;2022-12-29T00:56:17;1.45;;;1.35;;
75007;SDS011;63554;48.940;12.050;2022-12-29T01:00:21;2.35;;;2.00;;
75007;SDS011;63554;48.940;12.050;2022-12-29T01:04:24;2.80;;;2.15;;
75007;SDS011;63554;48.940;12.050;2022-12-29T01:08:28;1.55;;;1.45;;
75007;SDS011;63554;48.940;12.050;2022-12-29T01:12:32;2.10;;;2.00;;
75007;SDS011;63554;48.940;12.050;2022-12-29T01:16:47;2.50;;;1.40;;
75007;SDS011;63554;48.940;12.050;2022-12-29T01:20:50;1.98;;;1.88;;
75007;SDS011;63554;48.940;12.050;2022-12-29T01:24:53;1.52;;;1.30;;
75007;SDS011;63554;48.940;12.050;2022-12-29T01:28:56;2.35;;;2.00;;
75007;SDS011;63554;48.940;12.050;2022-12-29T01:33:00;2.15;;;1.40;;
75007;SDS011;63554;48.940;12.050;2022-12-29T01:37:02;1.95;;;1.83;;
75007;SDS011;63554;48.940;12.050;2022-12-29T01:41:05;4.22;;;2.40;;
75007;SDS011;63554;48.940;12.050;2022-12-29T01:45:10;2.40;;;2.28;;
75007;SDS011;63554;48.940;12.050;2022-12-29T01:49:17;2.88;;;1.30;;
75007;SDS011;63554;48.940;12.050;2022-12-29T01:53:25;1.23;;;1.15;;
75007;SDS011;63554;48.940;12.050;2022-12-29T01:57:32;2.25;;;2.15;;
75007;SDS011;63554;48.940;12.050;2022-12-29T02:01:39;2.80;;;1.88;;
75007;SDS011;63554;48.940;12.050;2022-12-29T02:05:44;3.08;;;2.38;;
75007;SDS011;63554;48.940;12.050;2022-12-29T02:09:52;2.15;;;2.00;;
75007;SDS011;63554;48.940;12.050;2022-12-29T02:13:57;1.70;;;1.60;;
75007;SDS011;63554;48.940;12.050;2022-12-29T02:18:08;1.63;;;1.50;;
75007;SDS011;63554;48.940;12.050;2022-12-29T02:22:24;1.98;;;1.83;;
75007;SDS011;63554;48.940;12.050;2022-12-29T02:26:38;1.73;;;1.63;;
75007;SDS011;63554;48.940;12.050;2022-12-29T02:30:54;2.78;;;2.58;;
75007;SDS011;63554;48.940;12.050;2022-12-29T02:35:08;1.60;;;1.50;;
75007;SDS011;63554;48.940;12.050;2022-12-29T02:39:23;2.83;;;2.60;;
75007;SDS011;63554;48.940;12.050;2022-12-29T02:43:37;3.15;;;2.20;;
75007;SDS011;63554;48.940;12.050;2022-12-29T02:47:46;2.65;;;1.88;;
75007;SDS011;63554;48.940;12.050;2022-12-29T02:51:54;1.85;;;1.75;;
75007;SDS011;63554;48.940;12.050;2022-12-29T02:56:03;1.83;;;1.73;;
75007;SDS011;63554;48.940;12.050;2022-12-29T03:00:07;2.15;;;2.05;;
75007;SDS011;63554;48.940;12.050;2022-12-29T03:04:18;2.13;;;1.60;;
75007;SDS011;63554;48.940;12.050;2022-12-29T03:08:28;2.05;;;1.90;;
75007;SDS011;63554;48.940;12.050;2022-12-29T03:12:39;2.50;;;2.30;;
75007;SDS011;63554;48.940;12.050;2022-12-29T03:17:07;2.00;;;1.90;;
75007;SDS011;63554;48.940;12.050;2022-12-29T03:21:14;3.53;;;1.77;;
75007;SDS011;63554;48.940;12.050;2022-12-29T03:25:21;1.63;;;1.52;;
75007;SDS011;63554;48.940;12.050;2022-12-29T03:29:28;1.77;;;1.67;;
75007;SDS011;63554;48.940;12.050;2022-12-29T03:33:35;2.83;;;2.63;;
75007;SDS011;63554;48.940;12.050;2022-12-29T03:37:43;3.47;;;3.20;;
75007;SDS011;63554;48.940;12.050;2022-12-29T03:41:54;2.00;;;1.90;;
75007;SDS011;63554;48.940;12.050;2022-12-29T03:46:02;0.85;;;0.85;;
75007;SDS011;63554;48.940;12.050;2022-12-29T03:50:05;2.83;;;1.83;;
75007;SDS011;63554;48.940;12.050;2022-12-29T03:54:11;1.88;;;1.77;;
75007;SDS011;63554;48.940;12.050;2022-12-29T03:58:13;1.77;;;1.67;;
75007;SDS011;63554;48.940;12.050;2022-12-29T04:02:18;1.85;;;1.75;;
75007;SDS011;63554;48.940;12.050;2022-12-29T04:06:21;0.98;;;0.98;;
75007;SDS011;63554;48.940;12.050;2022-12-29T04:10:26;3.55;;;1.98;;
75007;SDS011;63554;48.940;12.050;2022-12-29T04:14:28;1.85;;;1.75;;
75007;SDS011;63554;48.940;12.050;2022-12-29T04:18:31;1.40;;;1.30;;
75007;SDS011;63554;48.940;12.050;2022-12-29T04:22:34;1.75;;;1.42;;
75007;SDS011;63554;48.940;12.050;2022-12-29T04:26:38;3.33;;;1.67;;
75007;SDS011;63554;48.940;12.050;2022-12-29T04:30:42;1.73;;;1.63;;
75007;SDS011;63554;48.940;12.050;2022-12-29T04:34:45;1.30;;;1.27;;
75007;SDS011;63554;48.940;12.050;2022-12-29T04:38:47;2.45;;;2.08;;
75007;SDS011;63554;48.940;12.050;2022-12-29T04:42:51;1.73;;;1.63;;
75007;SDS011;63554;48.940;12.050;2022-12-29T04:46:54;1.38;;;1.35;;
75007;SDS011;63554;48.940;12.050;2022-12-29T04:50:57;1.58;;;1.48;;
75007;SDS011;63554;48.940;12.050;2022-12-29T04:54:59;1.70;;;1.55;;
75007;SDS011;63554;48.940;12.050;2022-12-29T04:59:04;2.72;;;2.30;;
75007;SDS011;63554;48.940;12.050;2022-12-29T05:03:07;1.75;;;1.65;;
75007;SDS011;63554;48.940;12.050;2022-12-29T05:07:10;1.58;;;1.48;;
75007;SDS011;63554;48.940;12.050;2022-12-29T05:11:13;1.50;;;1.40;;
75007;SDS011;63554;48.940;12.050;2022-12-29T05:15:17;2.65;;;1.35;;
75007;SDS011;63554;48.940;12.050;2022-12-29T05:19:20;2.35;;;2.15;;
75007;SDS011;63554;48.940;12.050;2022-12-29T05:23:22;1.90;;;1.70;;
75007;SDS011;63554;48.940;12.050;2022-12-29T05:27:25;1.73;;;1.60;;
75007;SDS011;63554;48.940;12.050;2022-12-29T05:31:29;1.80;;;1.70;;
75007;SDS011;63554;48.940;12.050;2022-12-29T05:35:32;1.83;;;1.73;;
75007;SDS011;63554;48.940;12.050;2022-12-29T05:39:35;1.15;;;1.13;;
75007;SDS011;63554;48.940;12.050;2022-12-29T05:43:38;7.90;;;2.33;;
75007;SDS011;63554;48.940;12.050;2022-12-29T05:47:42;1.40;;;1.30;;
75007;SDS011;63554;48.940;12.050;2022-12-29T05:51:44;1.58;;;1.23;;
75007;SDS011;63554;48.940;12.050;2022-12-29T05:55:47;2.28;;;2.08;;
75007;SDS011;63554;48.940;12.050;2022-12-29T05:59:50;1.50;;;1.30;;
75007;SDS011;63554;48.940;12.050;2022-12-29T06:03:54;1.60;;;1.50;;
75007;SDS011;63554;48.940;12.050;2022-12-29T06:07:57;2.08;;;1.90;;
75007;SDS011;63554;48.940;12.050;2022-12-29T06:12:00;2.63;;;1.83;;
75007;SDS011;63554;48.940;12.050;2022-12-29T06:16:02;3.20;;;1.65;;
75007;SDS011;63554;48.940;12.050;2022-12-29T06:20:07;1.55;;;1.45;;
75007;SDS011;63554;48.940;12.050;2022-12-29T06:24:11;2.35;;;2.15;;
75007;SDS011;63554;48.940;12.050;2022-12-29T06:28:14;5.95;;;4.35;;
75007;SDS011;63554;48.940;12.050;2022-12-29T06:32:17;6.80;;;3.72;;
75007;SDS011;63554;48.940;12.050;2022-12-29T06:36:22;3.67;;;3.25;;
75007;SDS011;63554;48.940;12.050;2022-12-29T06:40:25;1.83;;;1.13;;
75007;SDS011;63554;48.940;12.050;2022-12-29T06:44:28;1.58;;;1.55;;
75007;SDS011;63554;48.940;12.050;2022-12-29T06:48:30;1.65;;;1.23;;
75007;SDS011;63554;48.940;12.050;2022-12-29T06:52:34;1.50;;;1.38;;
75007;SDS011;63554;48.940;12.050;2022-12-29T06:56:37;3.20;;;2.45;;
75007;SDS011;63554;48.940;12.050;2022-12-29T07:00:40;1.50;;;1.45;;
75007;SDS011;63554;48.940;12.050;2022-12-29T07:04:42;2.40;;;1.40;;
75007;SDS011;63554;48.940;12.050;2022-12-29T07:08:46;2.05;;;1.90;;
75007;SDS011;63554;48.940;12.050;2022-12-29T07:12:49;1.70;;;1.60;;
75007;SDS011;63554;48.940;12.050;2022-12-29T07:16:52;2.50;;;2.30;;
75007;SDS011;63554;48.940;12.050;2022-12-29T07:20:55;1.40;;;1.40;;
75007;SDS011;63554;48.940;12.050;2022-12-29T07:24:59;2.38;;;2.08;;
75007;SDS011;63554;48.940;12.050;2022-12-29T07:29:01;2.33;;;1.88;;
75007;SDS011;63554;48.940;12.050;2022-12-29T07:33:04;1.55;;;1.45;;
75007;SDS011;63554;48.940;12.050;2022-12-29T07:37:07;1.33;;;1.17;;
75007;SDS011;63554;48.940;12.050;2022-12-29T07:41:11;1.58;;;1.48;;
75007;SDS011;63554;48.940;12.050;2022-12-29T07:45:14;5.85;;;2.38;;
75007;SDS011;63554;48.940;12.050;2022-12-29T07:49:17;7.20;;;4.03;;
75007;SDS011;63554;48.940;12.050;2022-12-29T07:53:19;1.70;;;1.60;;
75007;SDS011;63554;48.940;12.050;2022-12-29T07:57:23;2.28;;;1.90;;
75007;SDS011;63554;48.940;12.050;2022-12-29T08:01:32;1.55;;;1.10;;
75007;SDS011;63554;48.940;12.050;2022-12-29T08:05:35;2.08;;;1.60;;
75007;SDS011;63554;48.940;12.050;2022-12-29T08:09:38;1.85;;;1.48;;
75007;SDS011;63554;48.940;12.050;2022-12-29T08:13:42;4.95;;;1.50;;
75007;SDS011;63554;48.940;12.050;2022-12-29T08:17:45;2.47;;;2.10;;
75007;SDS011;63554;48.940;12.050;2022-12-29T08:21:48;3.67;;;3.20;;
75007;SDS011;63554;48.940;12.050;2022-12-29T08:25:56;1.52;;;1.10;;
75007;SDS011;63554;48.940;12.050;2022-12-29T08:30:01;2.83;;;1.98;;
75007;SDS011;63554;48.940;12.050;2022-12-29T08:34:03;2.72;;;2.20;;
75007;SDS011;63554;48.940;12.050;2022-12-29T08:38:06;1.30;;;1.20;;
75007;SDS011;63554;48.940;12.050;2022-12-29T08:42:09;1.33;;;1.23;;
75007;SDS011;63554;48.940;12.050;2022-12-29T08:46:14;2.78;;;1.40;;
75007;SDS011;63554;48.940;12.050;2022-12-29T08:50:17;1.38;;;1.38;;
75007;SDS011;63554;48.940;12.050;2022-12-29T08:54:19;1.58;;;1.48;;
75007;SDS011;63554;48.940;12.050;2022-12-29T08:58:23;1.90;;;1.80;;
75007;SDS011;63554;48.940;12.050;2022-12-29T09:02:27;1.55;;;1.38;;
75007;SDS011;63554;48.940;12.050;2022-12-29T09:06:30;1.13;;;1.10;;
75007;SDS011;63554;48.940;12.050;2022-12-29T09:10:40;1.08;;;1.05;;
75007;SDS011;63554;48.940;12.050;2022-12-29T09:14:43;1.50;;;1.40;;
75007;SDS011;63554;48.940;12.050;2022-12-29T09:18:49;1.30;;;1.15;;
75007;SDS011;63554;48.940;12.050;2022-12-29T09:22:52;1.40;;;1.30;;
75007;SDS011;63554;48.940;12.050;2022-12-29T09:26:55;2.03;;;1.92;;
75007;SDS011;63554;48.940;12.050;2022-12-29T09:30:57;1.55;;;1.45;;
75007;SDS011;63554;48.940;12.050;2022-12-29T09:35:02;2.20;;;2.05;;
75007;SDS011;63554;48.940;12.050;2022-12-29T09:39:05;2.97;;;1.77;;
75007;SDS011;63554;48.940;12.050;2022-12-29T09:43:16;1.85;;;1.50;;
75007;SDS011;63554;48.940;12.050;2022-12-29T09:47:26;0.98;;;0.95;;
75007;SDS011;63554;48.940;12.050;2022-12-29T09:51:31;1.50;;;1.38;;
75007;SDS011;63554;48.940;12.050;2022-12-29T09:55:35;1.58;;;1.48;;
75007;SDS011;63554;48.940;12.050;2022-12-29T09:59:41;2.17;;;1.50;;
75007;SDS011;63554;48.940;12.050;2022-12-29T10:03:47;1.63;;;1.40;;
75007;SDS011;63554;48.940;12.050;2022-12-29T10:07:54;1.67;;;1.55;;
75007;SDS011;63554;48.940;12.050;2022-12-29T10:12:09;1.40;;;1.30;;
75007;SDS011;63554;48.940;12.050;2022-12-29T10:16:23;1.83;;;1.65;;
75007;SDS011;63554;48.940;12.050;2022-12-29T10:20:36;2.13;;;1.77;;
75007;SDS011;63554;48.940;12.050;2022-12-29T10:24:50;4.03;;;1.95;;
75007;SDS011;63554;48.940;12.050;2022-12-29T10:28:58;1.95;;;1.85;;
75007;SDS011;63554;48.940;12.050;2022-12-29T10:33:06;1.85;;;1.45;;
75007;SDS011;63554;48.940;12.050;2022-12-29T10:37:17;1.63;;;1.40;;
75007;SDS011;63554;48.940;12.050;2022-12-29T10:41:36;3.17;;;1.83;;
75007;SDS011;63554;48.940;12.050;2022-12-29T10:45:43;2.38;;;1.80;;
75007;SDS011;63554;48.940;12.050;2022-12-29T10:49:47;1.75;;;1.52;;
75007;SDS011;63554;48.940;12.050;2022-12-29T10:53:51;3.00;;;2.10;;
75007;SDS011;63554;48.940;12.050;2022-12-29T10:58:00;1.88;;;1.73;;
75007;SDS011;63554;48.940;12.050;2022-12-29T11:02:14;1.55;;;1.45;;
75007;SDS011;63554;48.940;12.050;2022-12-29T11:06:28;1.75;;;1.25;;
75007;SDS011;63554;48.940;12.050;2022-12-29T11:10:34;3.78;;;2.28;;
75007;SDS011;63554;48.940;12.050;2022-12-29T11:14:41;3.75;;;2.05;;
75007;SDS011;63554;48.940;12.050;2022-12-29T11:18:44;4.30;;;1.65;;
75007;SDS011;63554;48.940;12.050;2022-12-29T11:22:49;2.28;;;1.98;;
75007;SDS011;63554;48.940;12.050;2022-12-29T11:26:52;3.22;;;1.42;;
75007;SDS011;63554;48.940;12.050;2022-12-29T11:31:00;2.53;;;1.67;;
75007;SDS011;63554;48.940;12.050;2022-12-29T11:35:04;2.50;;;2.05;;
75007;SDS011;63554;48.940;12.050;2022-12-29T11:39:07;5.60;;;1.85;;
75007;SDS011;63554;48.940;12.050;2022-12-29T11:43:29;3.63;;;1.75;;
75007;SDS011;63554;48.940;12.050;2022-12-29T11:47:36;3.67;;;2.10;;
75007;SDS011;63554;48.940;12.050;2022-12-29T11:51:42;2.20;;;1.13;;
75007;SDS011;63554;48.940;12.050;2022-12-29T11:55:51;1.63;;;1.52;;
75007;SDS011;63554;48.940;12.050;2022-12-29T11:59:55;2.25;;;1.50;;
75007;SDS011;63554;48.940;12.050;2022-12-29T12:04:04;1.85;;;1.60;;
75007;SDS011;63554;48.940;12.050;2022-12-29T12:08:14;2.45;;;1.48;;
75007;SDS011;63554;48.940;12.050;2022-12-29T12:12:23;13.50;;;6.40;;
75007;SDS011;63554;48.940;12.050;2022-12-29T12:16:31;3.13;;;1.75;;
75007;SDS011;63554;48.940;12.050;2022-12-29T12:20:44;1.77;;;1.50;;
75007;SDS011;63554;48.940;12.050;2022-12-29T12:24:51;1.88;;;1.48;;
75007;SDS011;63554;48.940;12.050;2022-12-29T12:29:01;2.03;;;1.40;;
75007;SDS011;63554;48.940;12.050;2022-12-29T12:33:15;3.33;;;1.50;;
75007;SDS011;63554;48.940;12.050;2022-12-29T12:37:36;3.10;;;1.42;;
75007;SDS011;63554;48.940;12.050;2022-12-29T12:41:50;6.55;;;3.33;;
75007;SDS011;63554;48.940;12.050;2022-12-29T12:46:05;1.95;;;1.48;;
75007;SDS011;63554;48.940;12.050;2022-12-29T12:54:58;2.65;;;1.33;;
75007;SDS011;63554;48.940;12.050;2022-12-29T12:59:13;3.67;;;1.35;;
75007;SDS011;63554;48.940;12.050;2022-12-29T13:03:31;6.18;;;1.23;;
75007;SDS011;63554;48.940;12.050;2022-12-29T13:07:48;1.58;;;0.98;;
75007;SDS011;63554;48.940;12.050;2022-12-29T13:12:01;1.58;;;1.05;;
75007;SDS011;63554;48.940;12.050;2022-12-29T13:16:13;1.17;;;0.90;;
75007;SDS011;63554;48.940;12.050;2022-12-29T13:20:26;2.47;;;0.80;;
75007;SDS011;63554;48.940;12.050;2022-12-29T13:24:37;0.40;;;0.38;;
75007;SDS011;63554;48.940;12.050;2022-12-29T13:28:52;1.08;;;0.98;;
75007;SDS011;63554;48.940;12.050;2022-12-29T13:33:00;0.50;;;0.50;;
75007;SDS011;63554;48.940;12.050;2022-12-29T13:37:17;1.75;;;0.80;;
75007;SDS011;63554;48.940;12.050;2022-12-29T13:45:31;0.80;;;0.68;;
75007;SDS011;63554;48.940;12.050;2022-12-29T13:49:36;0.98;;;0.90;;
75007;SDS011;63554;48.940;12.050;2022-12-29T13:53:50;0.73;;;0.60;;
75007;SDS011;63554;48.940;12.050;2022-12-29T13:58:03;2.25;;;1.13;;
75007;SDS011;63554;48.940;12.050;2022-12-29T14:02:17;0.80;;;0.77;;
75007;SDS011;63554;48.940;12.050;2022-12-29T14:06:30;1.10;;;0.95;;
75007;SDS011;63554;48.940;12.050;2022-12-29T14:10:35;1.67;;;0.95;;
75007;SDS011;63554;48.940;12.050;2022-12-29T14:14:39;0.50;;;0.50;;
75007;SDS011;63554;48.940;12.050;2022-12-29T14:18:43;0.60;;;0.57;;
75007;SDS011;63554;48.940;12.050;2022-12-29T14:22:55;0.98;;;0.88;;
75007;SDS011;63554;48.940;12.050;2022-12-29T14:26:59;1.00;;;0.68;;
75007;SDS011;63554;48.940;12.050;2022-12-29T14:31:03;0.68;;;0.63;;
75007;SDS011;63554;48.940;12.050;2022-12-29T14:39:43;2.45;;;0.90;;
75007;SDS011;63554;48.940;12.050;2022-12-29T14:43:57;0.93;;;0.82;;
75007;SDS011;63554;48.940;12.050;2022-12-29T14:48:03;1.25;;;0.90;;
75007;SDS011;63554;48.940;12.050;2022-12-29T14:52:44;0.95;;;0.70;;
75007;SDS011;63554;48.940;12.050;2022-12-29T14:56:49;2.83;;;1.10;;
75007;SDS011;63554;48.940;12.050;2022-12-29T15:00:52;0.88;;;0.68;;
75007;SDS011;63554;48.940;12.050;2022-12-29T15:04:58;1.10;;;0.65;;
75007;SDS011;63554;48.940;12.050;2022-12-29T15:09:05;2.58;;;0.73;;
75007;SDS011;63554;48.940;12.050;2022-12-29T15:13:16;2.60;;;0.82;;
75007;SDS011;63554;48.940;12.050;2022-12-29T15:17:24;0.95;;;0.90;;
75007;SDS011;63554;48.940;12.050;2022-12-29T15:21:29;0.75;;;0.70;;
75007;SDS011;63554;48.940;12.050;2022-12-29T15:25:35;0.55;;;0.55;;
75007;SDS011;63554;48.940;12.050;2022-12-29T15:29:39;0.40;;;0.40;;
75007;SDS011;63554;48.940;12.050;2022-12-29T15:33:43;1.30;;;0.90;;
75007;SDS011;63554;48.940;12.050;2022-12-29T15:37:48;1.35;;;1.25;;
75007;SDS011;63554;48.940;12.050;2022-12-29T15:41:53;1.30;;;0.68;;
75007;SDS011;63554;48.940;12.050;2022-12-29T15:46:01;1.35;;;1.02;;
75007;SDS011;63554;48.940;12.050;2022-12-29T15:50:05;3.60;;;1.58;;
75007;SDS011;63554;48.940;12.050;2022-12-29T15:54:14;3.40;;;1.17;;
75007;SDS011;63554;48.940;12.050;2022-12-29T15:58:21;1.75;;;1.35;;
75007;SDS011;63554;48.940;12.050;2022-12-29T16:02:26;1.27;;;0.75;;
75007;SDS011;63554;48.940;12.050;2022-12-29T16:06:30;2.35;;;1.40;;
75007;SDS011;63554;48.940;12.050;2022-12-29T16:10:35;1.42;;;1.08;;
75007;SDS011;63554;48.940;12.050;2022-12-29T16:14:43;3.45;;;3.15;;
75007;SDS011;63554;48.940;12.050;2022-12-29T16:18:49;4.85;;;1.25;;
75007;SDS011;63554;48.940;12.050;2022-12-29T16:22:58;1.63;;;1.52;;
75007;SDS011;63554;48.940;12.050;2022-12-29T16:27:02;3.10;;;2.03;;
75007;SDS011;63554;48.940;12.050;2022-12-29T16:31:17;18.90;;;11.00;;
75007;SDS011;63554;48.940;12.050;2022-12-29T16:35:23;4.18;;;2.25;;
75007;SDS011;63554;48.940;12.050;2022-12-29T16:43:33;2.10;;;1.85;;
75007;SDS011;63554;48.940;12.050;2022-12-29T16:47:44;2.30;;;1.83;;
75007;SDS011;63554;48.940;12.050;2022-12-29T16:51:48;2.13;;;1.92;;
75007;SDS011;63554;48.940;12.050;2022-12-29T16:55:51;2.83;;;1.88;;
75007;SDS011;63554;48.940;12.050;2022-12-29T16:59:56;1.27;;;1.17;;
75007;SDS011;63554;48.940;12.050;2022-12-29T17:04:04;2.45;;;1.80;;
75007;SDS011;63554;48.940;12.050;2022-12-29T17:08:15;2.22;;;1.60;;
75007;SDS011;63554;48.940;12.050;2022-12-29T17:12:24;1.75;;;1.35;;
75007;SDS011;63554;48.940;12.050;2022-12-29T17:16:29;2.15;;;1.45;;
75007;SDS011;63554;48.940;12.050;2022-12-29T17:20:33;1.50;;;1.30;;
75007;SDS011;63554;48.940;12.050;2022-12-29T17:24:36;2.53;;;1.52;;
75007;SDS011;63554;48.940;12.050;2022-12-29T17:28:38;3.40;;;2.05;;
75007;SDS011;63554;48.940;12.050;2022-12-29T17:32:41;7.05;;;5.25;;
75007;SDS011;63554;48.940;12.050;2022-12-29T17:36:47;16.23;;;6.70;;
75007;SDS011;63554;48.940;12.050;2022-12-29T17:40:50;11.90;;;4.90;;
75007;SDS011;63554;48.940;12.050;2022-12-29T17:44:52;21.15;;;7.82;;
75007;SDS011;63554;48.940;12.050;2022-12-29T17:48:55;10.38;;;3.97;;
75007;SDS011;63554;48.940;12.050;2022-12-29T17:53:00;8.02;;;3.30;;
75007;SDS011;63554;48.940;12.050;2022-12-29T18:01:08;11.73;;;4.80;;
75007;SDS011;63554;48.940;12.050;2022-12-29T18:05:16;4.13;;;2.60;;
75007;SDS011;63554;48.940;12.050;2022-12-29T18:09:22;7.47;;;2.72;;
75007;SDS011;63554;48.940;12.050;2022-12-29T18:13:25;7.47;;;4.88;;
75007;SDS011;63554;48.940;12.050;2022-12-29T18:17:45;6.55;;;3.50;;
75007;SDS011;63554;48.940;12.050;2022-12-29T18:21:48;8.50;;;4.22;;
75007;SDS011;63554;48.940;12.050;2022-12-29T18:25:53;8.63;;;5.20;;
75007;SDS011;63554;48.940;12.050;2022-12-29T18:29:59;10.45;;;5.70;;
75007;SDS011;63554;48.940;12.050;2022-12-29T18:34:03;15.45;;;7.90;;
75007;SDS011;63554;48.940;12.050;2022-12-29T18:38:13;27.42;;;11.25;;
75007;SDS011;63554;48.940;12.050;2022-12-29T18:42:17;19.15;;;9.57;;
75007;SDS011;63554;48.940;12.050;2022-12-29T18:46:20;11.15;;;4.63;;
75007;SDS011;63554;48.940;12.050;2022-12-29T18:50:24;7.10;;;3.63;;
75007;SDS011;63554;48.940;12.050;2022-12-29T18:54:28;15.13;;;6.22;;
75007;SDS011;63554;48.940;12.050;2022-12-29T18:58:33;10.32;;;6.18;;
75007;SDS011;63554;48.940;12.050;2022-12-29T19:02:36;38.35;;;14.52;;
75007;SDS011;63554;48.940;12.050;2022-12-29T19:06:39;23.05;;;9.77;;
75007;SDS011;63554;48.940;12.050;2022-12-29T19:10:42;24.88;;;10.30;;
75007;SDS011;63554;48.940;12.050;2022-12-29T19:14:47;13.90;;;6.18;;
75007;SDS011;63554;48.940;12.050;2022-12-29T19:18:50;18.00;;;9.85;;
75007;SDS011;63554;48.940;12.050;2022-12-29T19:23:10;18.17;;;8.23;;
75007;SDS011;63554;48.940;12.050;2022-12-29T19:27:13;23.10;;;8.73;;
75007;SDS011;63554;48.940;12.050;2022-12-29T19:31:17;8.73;;;5.80;;
75007;SDS011;63554;48.940;12.050;2022-12-29T19:35:20;2.30;;;1.42;;
75007;SDS011;63554;48.940;12.050;2022-12-29T19:39:24;3.05;;;2.42;;
75007;SDS011;63554;48.940;12.050;2022-12-29T19:43:28;8.77;;;3.78;;
75007;SDS011;63554;48.940;12.050;2022-12-29T19:47:32;11.75;;;6.07;;
75007;SDS011;63554;48.940;12.050;2022-12-29T19:51:36;3.92;;;2.63;;
75007;SDS011;63554;48.940;12.050;2022-12-29T19:55:40;3.03;;;2.80;;
75007;SDS011;63554;48.940;12.050;2022-12-29T19:59:43;7.13;;;5.30;;
75007;SDS011;63554;48.940;12.050;2022-12-29T20:03:47;5.70;;;4.82;;
75007;SDS011;63554;48.940;12.050;2022-12-29T20:07:50;8.15;;;6.00;;
75007;SDS011;63554;48.940;12.050;2022-12-29T20:11:53;9.15;;;5.70;;
75007;SDS011;63554;48.940;12.050;2022-12-29T20:15:56;7.05;;;4.78;;
75007;SDS011;63554;48.940;12.050;2022-12-29T20:20:02;8.20;;;5.13;;
75007;SDS011;63554;48.940;12.050;2022-12-29T20:24:05;5.97;;;4.80;;
75007;SDS011;63554;48.940;12.050;2022-12-29T20:28:08;10.38;;;5.85;;
75007;SDS011;63554;48.940;12.050;2022-12-29T20:32:12;14.05;;;5.95;;
75007;SDS011;63554;48.940;12.050;2022-12-29T20:36:19;8.38;;;4.22;;
75007;SDS011;63554;48.940;12.050;2022-12-29T20:40:23;9.38;;;4.15;;
75007;SDS011;63554;48.940;12.050;2022-12-29T20:44:27;5.85;;;3.25;;
75007;SDS011;63554;48.940;12.050;2022-12-29T20:48:30;3.97;;;3.63;;
75007;SDS011;63554;48.940;12.050;2022-12-29T20:52:34;6.93;;;4.60;;
75007;SDS011;63554;48.940;12.050;2022-12-29T20:56:36;7.18;;;4.45;;
75007;SDS011;63554;48.940;12.050;2022-12-29T21:00:39;5.72;;;3.67;;
75007;SDS011;63554;48.940;12.050;2022-12-29T21:04:42;7.00;;;5.65;;
75007;SDS011;63554;48.940;12.050;2022-12-29T21:09:06;8.38;;;3.65;;
75007;SDS011;63554;48.940;12.050;2022-12-29T21:13:09;8.57;;;3.78;;
75007;SDS011;63554;48.940;12.050;2022-12-29T21:17:11;4.50;;;3.42;;
75007;SDS011;63554;48.940;12.050;2022-12-29T21:21:15;6.40;;;4.85;;
75007;SDS011;63554;48.940;12.050;2022-12-29T21:25:20;4.10;;;2.75;;
75007;SDS011;63554;48.940;12.050;2022-12-29T21:29:23;4.65;;;2.58;;
75007;SDS011;63554;48.940;12.050;2022-12-29T21:33:26;3.63;;;3.00;;
75007;SDS011;63554;48.940;12.050;2022-12-29T21:37:29;4.45;;;3.67;;
75007;SDS011;63554;48.940;12.050;2022-12-29T21:41:33;4.15;;;3.63;;
75007;SDS011;63554;48.940;12.050;2022-12-29T21:45:36;5.68;;;3.28;;
75007;SDS011;63554;48.940;12.050;2022-12-29T21:49:38;4.15;;;3.00;;
75007;SDS011;63554;48.940;12.050;2022-12-29T21:53:42;5.60;;;3.20;;
75007;SDS011;63554;48.940;12.050;2022-12-29T21:57:47;4.18;;;3.00;;
75007;SDS011;63554;48.940;12.050;2022-12-29T22:02:13;4.03;;;3.20;;
75007;SDS011;63554;48.940;12.050;2022-12-29T22:06:37;3.53;;;2.60;;
75007;SDS011;63554;48.940;12.050;2022-12-29T22:10:57;3.65;;;2.88;;
75007;SDS011;63554;48.940;12.050;2022-12-29T22:15:19;5.80;;;3.13;;
75007;SDS011;63554;48.940;12.050;2022-12-29T22:19:21;2.85;;;2.65;;
75007;SDS011;63554;48.940;12.050;2022-12-29T22:23:24;3.38;;;2.28;;
75007;SDS011;63554;48.940;12.050;2022-12-29T22:27:27;3.63;;;2.97;;
75007;SDS011;63554;48.940;12.050;2022-12-29T22:31:31;2.55;;;2.35;;
75007;SDS011;63554;48.940;12.050;2022-12-29T22:35:34;3.42;;;1.95;;
75007;SDS011;63554;48.940;12.050;2022-12-29T22:39:36;4.65;;;4.25;;
75007;SDS011;63554;48.940;12.050;2022-12-29T22:43:39;4.82;;;4.15;;
75007;SDS011;63554;48.940;12.050;2022-12-29T22:47:43;4.07;;;3.15;;
75007;SDS011;63554;48.940;12.050;2022-12-29T22:51:45;6.95;;;3.30;;
75007;SDS011;63554;48.940;12.050;2022-12-29T22:55:48;6.97;;;4.82;;
75007;SDS011;63554;48.940;12.050;2022-12-29T22:59:51;6.80;;;3.58;;
75007;SDS011;63554;48.940;12.050;2022-12-29T23:03:55;3.97;;;2.95;;
75007;SDS011;63554;48.940;12.050;2022-12-29T23:08:17;7.28;;;4.47;;
75007;SDS011;63554;48.940;12.050;2022-12-29T23:12:20;4.30;;;3.00;;
75007;SDS011;63554;48.940;12.050;2022-12-29T23:16:23;3.03;;;2.63;;
75007;SDS011;63554;48.940;12.050;2022-12-29T23:20:27;5.03;;;3.17;;
75007;SDS011;63554;48.940;12.050;2022-12-29T23:24:30;6.22;;;3.33;;
75007;SDS011;63554;48.940;12.050;2022-12-29T23:28:33;5.35;;;3.47;;
75007;SDS011;63554;48.940;12.050;2022-12-29T23:32:36;8.38;;;4.10;;
75007;SDS011;63554;48.940;12.050;2022-12-29T23:36:40;8.77;;;5.38;;
75007;SDS011;63554;48.940;12.050;2022-12-29T23:40:42;5.72;;;3.70;;
75007;SDS011;63554;48.940;12.050;2022-12-29T23:44:45;3.33;;;2.70;;
75007;SDS011;63554;48.940;12.050;2022-12-29T23:48:47;3.55;;;1.23;;
75007;SDS011;63554;48.940;12.050;2022-12-29T23:52:52;1.52;;;1.08;;
75007;SDS011;63554;48.940;12.050;2022-12-29T23:56:54;3.10;;;1.67;;
